Time;durP1;ratioP1;P1;durP2;ratioP2;P2;SDS_P1;SDS_P2;PMS_P1;PMS_P2;Temp;Humidity;BMP_temperature;BMP_pressure;BME280_temperature;BME280_humidity;BME280_pressure;Samples;Min_cycle;Max_cycle;Signal;HPM_P1;HPM_P2
2022/03/15 00:02:00;;;;;;;3.67;2.13;;;3.50;57.30;196.50;224877.00;;;;7394994;19;20608;-78
2022/03/15 00:04:27;;;;;;;5.77;2.37;;;3.50;44.30;196.50;224877.00;;;;7394360;19;20172;-77
2022/03/15 00:06:54;;;;;;;5.10;2.07;;;3.40;99.20;196.50;224877.00;;;;7395289;19;20141;-77
2022/03/15 00:09:28;;;;;;;5.67;2.60;;;3.30;99.90;196.50;224877.00;;;;7395933;19;20600;-78
2022/03/15 00:12:05;;;;;;;7.83;2.70;;;3.30;99.90;196.50;224877.00;;;;7392527;19;20173;-77
2022/03/15 00:14:38;;;;;;;7.10;1.93;;;3.30;99.90;196.50;224877.00;;;;7394135;19;20608;-77
2022/03/15 00:17:05;;;;;;;4.57;2.40;;;3.30;99.90;196.50;224877.00;;;;7394807;19;20162;-77
2022/03/15 00:19:33;;;;;;;5.10;2.10;;;3.30;99.90;196.50;224877.00;;;;7394800;19;20149;-77
2022/03/15 00:22:07;;;;;;;6.67;2.43;;;3.30;99.90;196.50;224877.00;;;;7394931;19;20141;-77
2022/03/15 00:24:34;;;;;;;5.90;2.20;;;3.20;99.90;196.50;224877.00;;;;7394813;19;20113;-77
2022/03/15 00:27:03;;;;;;;4.23;2.23;;;3.20;99.90;196.50;224877.00;;;;7392919;19;20160;-77
2022/03/15 00:29:38;;;;;;;5.00;2.40;;;3.20;99.90;196.50;224877.00;;;;7394784;19;20136;-77
2022/03/15 00:32:07;;;;;;;9.10;2.60;;;3.10;99.90;196.50;224877.00;;;;7393028;19;20162;-78
2022/03/15 00:34:35;;;;;;;5.60;2.23;;;3.10;99.90;196.50;224877.00;;;;7395351;19;20579;-77
2022/03/15 00:37:09;;;;;;;5.97;2.70;;;3.10;99.90;196.50;224877.00;;;;7394749;19;20154;-77
2022/03/15 00:39:36;;;;;;;9.20;2.33;;;3.10;99.90;196.50;224877.00;;;;7393069;19;20136;-77
2022/03/15 00:42:04;;;;;;;6.77;2.07;;;3.10;99.90;196.50;224877.00;;;;7391146;19;20370;-78
2022/03/15 00:44:38;;;;;;;13.47;2.20;;;3.00;99.90;196.50;224877.00;;;;7395349;19;20204;-77
2022/03/15 00:47:06;;;;;;;4.80;2.57;;;3.00;99.90;196.50;224877.00;;;;7398601;19;20594;-77
2022/03/15 00:49:37;;;;;;;7.53;2.63;;;2.90;99.90;196.50;224877.00;;;;7394625;19;20166;-77
2022/03/15 00:52:10;;;;;;;5.47;2.47;;;2.90;1.00;196.50;224877.00;;;;7392780;19;20148;-77
2022/03/15 00:54:37;;;;;;;4.23;2.50;;;2.90;1.00;196.50;224877.00;;;;7397686;19;20489;-77
2022/03/15 00:57:04;;;;;;;7.57;2.60;;;2.90;1.00;196.50;224877.00;;;;7398453;19;20255;-77
2022/03/15 00:59:39;;;;;;;6.73;2.40;;;2.90;1.00;196.50;224877.00;;;;7395324;19;20156;-77
2022/03/15 01:02:06;;;;;;;5.73;2.47;;;3.00;1.00;196.50;224877.00;;;;7394510;19;20460;-77
2022/03/15 01:04:34;;;;;;;7.53;2.73;;;3.00;1.00;196.50;224877.00;;;;7396918;19;20145;-78
2022/03/15 01:07:08;;;;;;;7.47;2.80;;;3.00;1.00;196.50;224877.00;;;;7397136;19;20125;-78
2022/03/15 01:09:35;;;;;;;8.83;3.10;;;3.10;1.00;196.50;224877.00;;;;7393883;19;20152;-77
2022/03/15 01:12:03;;;;;;;6.60;2.67;;;3.20;99.90;196.50;224877.00;;;;7394859;19;20507;-77
2022/03/15 01:14:43;;;;;;;8.00;3.60;;;3.50;99.90;196.50;224877.00;;;;7396428;19;20177;-78
2022/03/15 01:17:10;;;;;;;9.37;3.43;;;3.70;99.90;196.50;224877.00;;;;7397177;19;20149;-78
2022/03/15 01:19:44;;;;;;;4.87;2.87;;;3.70;99.90;196.50;224877.00;;;;7393090;19;20220;-77
2022/03/15 01:22:11;;;;;;;7.17;2.83;;;3.70;99.90;196.50;224877.00;;;;7397009;19;20144;-77
2022/03/15 01:24:38;;;;;;;4.07;2.60;;;3.80;31.00;196.50;224877.00;;;;7395566;19;20149;-77
2022/03/15 01:27:13;;;;;;;4.97;3.00;;;4.00;1.00;196.50;224877.00;;;;7397193;19;20181;-78
2022/03/15 01:29:40;;;;;;;5.03;2.57;;;4.10;1.00;196.50;224877.00;;;;7396371;19;20148;-78
2022/03/15 01:32:07;;;;;;;8.53;2.87;;;4.10;1.00;196.50;224877.00;;;;7398283;19;20145;-77
2022/03/15 01:34:42;;;;;;;7.73;2.90;;;4.20;1.00;196.50;224877.00;;;;7396952;19;20608;-78
2022/03/15 01:37:10;;;;;;;6.27;2.37;;;4.10;1.00;196.50;224877.00;;;;7401133;19;20125;-77
2022/03/15 01:39:37;;;;;;;5.30;2.50;;;4.10;1.00;196.50;224877.00;;;;7397263;19;20140;-78
2022/03/15 01:42:10;;;;;;;3.70;2.00;;;4.00;1.00;196.50;224877.00;;;;7397107;19;20153;-77
2022/03/15 01:44:46;;;;;;;5.10;2.27;;;3.90;1.00;196.50;224877.00;;;;7393039;19;20632;-77
2022/03/15 01:47:19;;;;;;;2.87;2.10;;;3.80;23.70;196.50;224877.00;;;;7394217;19;20121;-78
2022/03/15 01:49:47;;;;;;;6.03;2.60;;;3.80;37.90;196.50;224877.00;;;;7394816;19;20503;-77
2022/03/15 01:52:15;;;;;;;8.73;3.03;;;3.80;3.60;196.50;224877.00;;;;7393844;19;20149;-77
2022/03/15 01:54:50;;;;;;;4.80;2.70;;;3.80;9.50;196.50;224877.00;;;;7387455;19;20151;-78
2022/03/15 01:57:18;;;;;;;6.67;2.60;;;3.90;1.00;196.50;224877.00;;;;7394552;19;20663;-77
2022/03/15 01:59:45;;;;;;;5.70;3.00;;;4.00;1.00;196.50;224877.00;;;;7391102;19;20588;-78
2022/03/15 02:02:18;;;;;;;7.97;3.00;;;4.10;1.00;196.50;224877.00;;;;7390573;19;20151;-77
2022/03/15 02:04:45;;;;;;;7.20;3.00;;;4.20;1.00;196.50;224877.00;;;;7389581;19;20609;-77
2022/03/15 02:07:13;;;;;;;8.53;3.00;;;4.30;1.00;196.50;224877.00;;;;7390067;19;20140;-77
2022/03/15 02:09:49;;;;;;;4.80;2.47;;;4.30;1.00;196.50;224877.00;;;;7390145;19;20614;-77
2022/03/15 02:12:29;;;;;;;5.53;2.67;;;4.40;1.00;196.50;224877.00;;;;7390252;19;20149;-76
2022/03/15 02:15:08;;;;;;;7.60;3.07;;;4.50;1.00;196.50;224877.00;;;;7390494;19;20486;-77
2022/03/15 02:17:36;;;;;;;7.87;2.73;;;4.50;1.00;196.50;224877.00;;;;7391417;19;20129;-77
2022/03/15 02:20:13;;;;;;;5.73;2.53;;;4.50;1.00;196.50;224877.00;;;;7390725;19;20187;-77
2022/03/15 02:22:40;;;;;;;5.40;2.63;;;4.50;1.00;196.50;224877.00;;;;7391705;19;20157;-77
2022/03/15 02:25:08;;;;;;;5.80;2.70;;;4.50;1.00;196.50;224877.00;;;;7389970;19;20164;-77
2022/03/15 02:27:42;;;;;;;9.00;2.33;;;4.50;1.00;196.50;224877.00;;;;7391391;19;20175;-77
2022/03/15 02:30:10;;;;;;;7.40;2.50;;;4.50;1.00;196.50;224877.00;;;;7389971;19;20643;-76
2022/03/15 02:32:42;;;;;;;6.43;2.40;;;4.50;1.00;196.50;224877.00;;;;7389414;19;20488;-76
2022/03/15 02:35:16;;;;;;;11.17;2.80;;;4.40;1.00;196.50;224877.00;;;;7389983;19;20157;-76
2022/03/15 02:37:43;;;;;;;7.13;2.60;;;4.40;1.00;196.50;224877.00;;;;7390097;19;20598;-77
2022/03/15 02:40:11;;;;;;;7.00;2.53;;;4.50;99.90;196.50;224877.00;;;;7389431;19;20137;-77
2022/03/15 02:42:45;;;;;;;6.23;2.20;;;4.60;99.90;196.50;224877.00;;;;7389884;19;20610;-77
2022/03/15 02:45:14;;;;;;;5.70;2.25;;;4.60;99.90;196.50;224877.00;;;;7390108;19;20141;-77
2022/03/15 02:47:43;;;;;;;6.60;2.37;;;4.60;99.90;196.50;224877.00;;;;7389323;19;20132;-77
2022/03/15 02:50:16;;;;;;;5.73;2.10;;;4.50;99.90;196.50;224877.00;;;;7389237;19;20733;-77
2022/03/15 02:52:43;;;;;;;9.63;2.90;;;4.50;1.00;196.50;224877.00;;;;7389870;19;20137;-77
2022/03/15 02:55:10;;;;;;;7.07;2.60;;;4.40;1.00;196.50;224877.00;;;;7386294;19;20608;-77
2022/03/15 02:57:44;;;;;;;5.90;2.00;;;4.40;99.90;196.50;224877.00;;;;7396434;19;20220;-77
2022/03/15 03:00:14;;;;;;;5.43;1.90;;;4.50;99.90;196.50;224877.00;;;;7394059;19;20144;-77
2022/03/15 03:02:42;;;;;;;4.73;1.67;;;4.70;99.90;196.50;224877.00;;;;7399190;19;20149;-77
2022/03/15 03:05:15;;;;;;;4.40;1.93;;;4.90;99.90;196.50;224877.00;;;;7396268;19;20137;-77
2022/03/15 03:07:45;;;;;;;4.60;2.00;;;5.00;99.90;196.50;224877.00;;;;7396180;19;20147;-77
2022/03/15 03:10:12;;;;;;;3.13;1.57;;;5.10;70.10;196.50;224877.00;;;;7398644;19;20618;-77
2022/03/15 03:12:52;;;;;;;3.97;1.77;;;5.30;16.60;196.50;224877.00;;;;7395385;19;20141;-77
2022/03/15 03:15:22;;;;;;;2.40;1.60;;;5.50;1.00;196.50;224877.00;;;;7397950;19;20133;-77
2022/03/15 03:17:56;;;;;;;4.23;1.57;;;5.50;1.00;196.50;224877.00;;;;7396457;19;20624;-77
2022/03/15 03:20:27;;;;;;;4.03;1.60;;;5.60;1.00;196.50;224877.00;;;;7396589;19;20137;-77
2022/03/15 03:22:55;;;;;;;3.47;1.70;;;5.70;1.00;196.50;224877.00;;;;7396670;19;20125;-77
2022/03/15 03:25:30;;;;;;;3.97;1.80;;;5.70;1.00;196.50;224877.00;;;;7394848;19;20203;-77
2022/03/15 03:28:00;;;;;;;8.37;1.97;;;5.80;1.00;196.50;224877.00;;;;7396207;19;20595;-77
2022/03/15 03:30:29;;;;;;;2.33;1.47;;;5.90;1.00;196.50;224877.00;;;;7398117;19;20132;-78
2022/03/15 03:33:03;;;;;;;10.40;2.00;;;5.90;1.00;196.50;224877.00;;;;7395845;19;20566;-78
2022/03/15 03:35:30;;;;;;;4.10;1.60;;;6.00;1.00;196.50;224877.00;;;;7396997;19;20136;-77
2022/03/15 03:37:57;;;;;;;5.00;1.70;;;6.00;1.00;196.50;224877.00;;;;7397549;19;20129;-78
2022/03/15 03:40:32;;;;;;;5.73;1.70;;;6.00;1.00;196.50;224877.00;;;;7396648;19;20157;-77
2022/03/15 03:42:59;;;;;;;3.37;1.60;;;6.10;1.00;196.50;224877.00;;;;7396760;19;20117;-77
2022/03/15 03:45:27;;;;;;;6.30;2.07;;;6.10;1.00;196.50;224877.00;;;;7394949;19;20144;-77
2022/03/15 03:48:00;;;;;;;4.17;1.73;;;6.10;1.00;196.50;224877.00;;;;7395490;19;20137;-77
2022/03/15 03:50:27;;;;;;;4.47;1.80;;;6.10;1.00;196.50;224877.00;;;;7395702;19;20153;-77
2022/03/15 03:52:54;;;;;;;6.10;1.90;;;6.10;1.00;196.50;224877.00;;;;7395219;19;20137;-77
2022/03/15 03:55:29;;;;;;;6.27;1.80;;;6.10;1.00;196.50;224877.00;;;;7396668;19;20144;-76
2022/03/15 03:57:56;;;;;;;7.83;1.80;;;6.10;1.00;196.50;224877.00;;;;7396892;19;20190;-77
2022/03/15 04:00:23;;;;;;;3.07;1.70;;;6.10;1.00;196.50;224877.00;;;;7395601;19;20125;-77
2022/03/15 04:03:00;;;;;;;3.73;1.80;;;6.00;1.00;196.50;224877.00;;;;7396349;19;20131;-77
2022/03/15 04:05:33;;;;;;;7.83;1.83;;;6.00;1.00;196.50;224877.00;;;;7395696;19;20125;-77
2022/03/15 04:08:06;;;;;;;5.83;1.87;;;6.00;1.00;196.50;224877.00;;;;7394955;19;20604;-78
2022/03/15 04:10:34;;;;;;;4.93;2.10;;;6.00;1.00;196.50;224877.00;;;;7394989;19;20717;-77
2022/03/15 04:13:02;;;;;;;6.73;2.20;;;6.00;1.00;196.50;224877.00;;;;7392839;19;20670;-77
2022/03/15 04:15:37;;;;;;;2.77;1.80;;;6.00;1.00;196.50;224877.00;;;;7394915;19;20128;-78
2022/03/15 04:18:06;;;;;;;3.37;1.90;;;6.00;1.00;196.50;224877.00;;;;7395147;19;20131;-76
2022/03/15 04:20:35;;;;;;;4.37;1.80;;;5.90;1.00;196.50;224877.00;;;;7393749;19;20144;-77
2022/03/15 04:23:10;;;;;;;6.10;1.90;;;6.00;1.00;196.50;224877.00;;;;7395494;19;20631;-77
2022/03/15 04:25:38;;;;;;;5.37;1.93;;;6.00;1.00;196.50;224877.00;;;;7395653;19;20140;-77
2022/03/15 04:28:06;;;;;;;3.07;1.87;;;6.00;1.00;196.50;224877.00;;;;7393783;19;20136;-77
2022/03/15 04:30:39;;;;;;;2.97;1.50;;;6.00;1.00;196.50;224877.00;;;;7394170;19;20171;-77
2022/03/15 04:33:06;;;;;;;3.50;2.00;;;6.00;1.00;196.50;224877.00;;;;7394070;19;20210;-77
2022/03/15 04:35:34;;;;;;;8.80;2.80;;;6.00;1.00;196.50;224877.00;;;;7394261;19;20606;-77
2022/03/15 04:38:08;;;;;;;8.43;2.10;;;6.10;1.00;196.50;224877.00;;;;7393210;19;20140;-77
2022/03/15 04:40:36;;;;;;;4.50;1.70;;;6.10;1.00;196.50;224877.00;;;;7395890;19;20136;-77
2022/03/15 04:43:04;;;;;;;2.33;1.40;;;6.10;1.00;196.50;224877.00;;;;7395455;19;20133;-77
2022/03/15 04:45:37;;;;;;;3.80;1.77;;;6.10;1.00;196.50;224877.00;;;;7394272;19;20174;-77
2022/03/15 04:48:05;;;;;;;4.03;2.00;;;6.10;1.00;196.50;224877.00;;;;7394639;19;20129;-77
2022/03/15 04:50:32;;;;;;;4.20;1.70;;;6.00;1.00;196.50;224877.00;;;;7392526;19;20600;-77
2022/03/15 04:53:06;;;;;;;3.77;1.50;;;6.00;1.00;196.50;224877.00;;;;7394061;19;20132;-77
2022/03/15 04:55:34;;;;;;;6.47;1.87;;;5.90;1.00;196.50;224877.00;;;;7393484;19;20220;-77
2022/03/15 04:58:01;;;;;;;4.13;1.70;;;5.90;1.00;196.50;224877.00;;;;7393041;19;20125;-77
2022/03/15 05:00:35;;;;;;;9.77;2.07;;;5.90;1.00;196.50;224877.00;;;;7391950;19;20771;-77
2022/03/15 05:03:02;;;;;;;8.60;2.10;;;5.90;1.00;196.50;224877.00;;;;7392450;19;20129;-77
2022/03/15 05:05:30;;;;;;;5.40;2.13;;;5.90;1.00;196.50;224877.00;;;;7393067;19;20140;-77
2022/03/15 05:08:04;;;;;;;4.53;1.80;;;5.90;1.00;196.50;224877.00;;;;7390586;19;20135;-77
2022/03/15 05:13:29;;;;;;;4.23;1.93;;;5.90;1.00;196.50;224877.00;;;;7391494;19;20164;-78
2022/03/15 05:15:56;;;;;;;6.13;2.03;;;5.80;1.00;196.50;224877.00;;;;7390522;19;20140;-77
2022/03/15 05:18:30;;;;;;;6.47;2.07;;;5.90;1.00;196.50;224877.00;;;;7389830;19;20147;-77
2022/03/15 05:20:57;;;;;;;3.20;1.97;;;6.00;1.00;196.50;224877.00;;;;7393014;19;20133;-77
2022/03/15 05:23:25;;;;;;;5.20;1.83;;;6.00;1.00;196.50;224877.00;;;;7394286;19;20151;-76
2022/03/15 05:25:58;;;;;;;5.33;1.73;;;6.00;1.00;196.50;224877.00;;;;7391301;19;20136;-76
2022/03/15 05:28:26;;;;;;;3.23;1.60;;;6.00;1.00;196.50;224877.00;;;;7392045;19;20140;-77
2022/03/15 05:30:55;;;;;;;2.77;1.67;;;6.00;1.00;196.50;224877.00;;;;7391882;19;20125;-77
2022/03/15 05:33:28;;;;;;;3.97;1.63;;;6.00;1.00;196.50;224877.00;;;;7392569;19;20188;-77
2022/03/15 05:35:57;;;;;;;6.27;1.90;;;6.00;1.00;196.50;224877.00;;;;7391459;19;20168;-78
2022/03/15 05:38:24;;;;;;;2.80;1.97;;;6.00;1.00;196.50;224877.00;;;;7392753;19;20604;-77
2022/03/15 05:40:57;;;;;;;4.13;1.97;;;6.10;1.00;196.50;224877.00;;;;7390404;19;20129;-77
2022/03/15 05:43:44;;;;;;;4.17;1.90;;;6.10;1.00;196.50;224877.00;;;;7395712;19;20135;-76
2022/03/15 05:46:18;;;;;;;3.80;1.80;;;6.20;1.00;196.50;224877.00;;;;7392461;19;20268;-77
2022/03/15 05:48:47;;;;;;;3.63;1.87;;;6.20;1.00;196.50;224877.00;;;;7395473;19;20148;-77
2022/03/15 05:51:14;;;;;;;3.83;1.70;;;6.20;1.00;196.50;224877.00;;;;7397223;19;20592;-77
2022/03/15 05:53:47;;;;;;;5.27;1.83;;;6.20;1.00;196.50;224877.00;;;;7400566;19;20452;-76
2022/03/15 05:56:15;;;;;;;4.30;1.70;;;6.10;1.00;196.50;224877.00;;;;7397127;19;20132;-76
2022/03/15 05:58:46;;;;;;;3.23;2.07;;;6.10;1.00;196.50;224877.00;;;;7398960;19;20125;-77
2022/03/15 06:01:21;;;;;;;3.33;1.77;;;6.20;1.00;196.50;224877.00;;;;7398026;19;20169;-77
2022/03/15 06:03:49;;;;;;;5.63;2.23;;;6.20;1.00;196.50;224877.00;;;;7398545;19;20726;-76
2022/03/15 06:06:16;;;;;;;4.47;1.80;;;6.20;1.00;196.50;224877.00;;;;7400105;19;20144;-77
2022/03/15 06:08:51;;;;;;;5.80;2.43;;;6.20;1.00;196.50;224877.00;;;;7397015;19;20575;-77
2022/03/15 06:11:20;;;;;;;4.17;2.20;;;6.20;1.00;196.50;224877.00;;;;7396766;19;20144;-76
2022/03/15 06:13:47;;;;;;;3.10;1.73;;;6.20;1.00;196.50;224877.00;;;;7395504;19;20148;-76
2022/03/15 06:16:21;;;;;;;1.73;1.33;;;6.20;1.00;196.50;224877.00;;;;7395503;19;20137;-76
2022/03/15 06:18:50;;;;;;;4.07;1.93;;;6.20;1.00;196.50;224877.00;;;;7395996;19;20154;-77
2022/03/15 06:21:18;;;;;;;2.93;1.53;;;6.20;1.00;196.50;224877.00;;;;7396544;19;20180;-76
2022/03/15 06:23:51;;;;;;;3.00;1.57;;;6.20;1.00;196.50;224877.00;;;;7396156;19;20648;-76
2022/03/15 06:26:35;;;;;;;3.80;2.17;;;6.20;1.00;196.50;224877.00;;;;7395173;19;20165;-76
2022/03/15 06:29:09;;;;;;;5.37;2.03;;;6.30;1.00;196.50;224877.00;;;;7398128;19;20628;-76
2022/03/15 06:31:37;;;;;;;3.43;1.77;;;6.30;1.00;196.50;224877.00;;;;7404186;19;20756;-77
2022/03/15 06:34:05;;;;;;;4.17;2.07;;;6.30;1.00;196.50;224877.00;;;;7405955;19;20110;-76
2022/03/15 06:36:41;;;;;;;5.77;2.50;;;6.30;1.00;196.50;224877.00;;;;7404696;19;20151;-77
2022/03/15 06:39:08;;;;;;;4.73;1.60;;;6.30;1.00;196.50;224877.00;;;;7403402;19;20135;-77
2022/03/15 06:41:39;;;;;;;2.97;1.60;;;6.40;1.00;196.50;224877.00;;;;7405432;19;20177;-77
2022/03/15 06:44:12;;;;;;;6.07;1.87;;;6.40;1.00;196.50;224877.00;;;;7402928;19;20140;-77
2022/03/15 06:46:40;;;;;;;2.30;1.70;;;6.40;1.00;196.50;224877.00;;;;7401874;19;20142;-77
2022/03/15 06:49:07;;;;;;;4.93;1.80;;;6.40;1.00;196.50;224877.00;;;;7402436;19;20196;-76
2022/03/15 06:51:42;;;;;;;5.00;2.27;;;6.40;1.00;196.50;224877.00;;;;7403449;19;20143;-76
2022/03/15 06:54:09;;;;;;;5.27;1.90;;;6.40;1.00;196.50;224877.00;;;;7402305;19;20125;-76
2022/03/15 06:56:39;;;;;;;3.37;1.70;;;6.40;1.00;196.50;224877.00;;;;7402310;19;20208;-77
2022/03/15 06:59:13;;;;;;;2.93;1.63;;;6.50;1.00;196.50;224877.00;;;;7401395;19;20157;-77
2022/03/15 07:01:41;;;;;;;4.80;1.83;;;6.50;1.00;196.50;224877.00;;;;7400569;19;20825;-76
2022/03/15 07:04:09;;;;;;;4.17;1.90;;;6.50;1.00;196.50;224877.00;;;;7403531;19;20520;-77
2022/03/15 07:06:43;;;;;;;4.13;1.70;;;6.50;1.00;196.50;224877.00;;;;7400466;19;20599;-78
2022/03/15 07:09:11;;;;;;;10.07;1.87;;;6.60;1.00;196.50;224877.00;;;;7401516;19;20137;-78
2022/03/15 07:11:39;;;;;;;4.60;1.50;;;6.60;1.00;196.50;224877.00;;;;7400313;19;20145;-79
2022/03/15 07:14:19;;;;;;;6.20;1.50;;;6.60;1.00;196.50;224877.00;;;;7397470;19;20572;-78
2022/03/15 07:16:46;;;;;;;6.30;2.07;;;6.60;1.00;196.50;224877.00;;;;7402092;19;20141;-79
2022/03/15 07:19:21;;;;;;;4.50;2.00;;;6.60;1.00;196.50;224877.00;;;;7400470;19;20761;-78
2022/03/15 07:21:48;;;;;;;4.30;1.80;;;6.70;1.00;196.50;224877.00;;;;7401088;19;20121;-78
2022/03/15 07:24:16;;;;;;;3.63;1.93;;;6.70;1.00;196.50;224877.00;;;;7400855;19;20181;-77
2022/03/15 07:26:49;;;;;;;6.67;2.00;;;6.70;1.00;196.50;224877.00;;;;7401197;19;20133;-79
2022/03/15 07:29:17;;;;;;;7.17;1.80;;;6.70;1.00;196.50;224877.00;;;;7400048;19;20152;-78
2022/03/15 07:31:44;;;;;;;3.77;1.70;;;6.70;1.00;196.50;224877.00;;;;7400756;19;20629;-77
2022/03/15 07:34:19;;;;;;;6.30;1.83;;;6.60;1.00;196.50;224877.00;;;;7400506;19;20132;-78
2022/03/15 07:36:46;;;;;;;5.87;2.00;;;6.60;1.00;196.50;224877.00;;;;7402196;19;20124;-77
2022/03/15 07:39:14;;;;;;;5.13;1.90;;;6.60;1.00;196.50;224877.00;;;;7399682;19;20161;-78
2022/03/15 07:41:50;;;;;;;3.30;1.70;;;6.60;1.00;196.50;224877.00;;;;7400519;19;20155;-76
2022/03/15 07:44:17;;;;;;;4.50;1.60;;;6.60;1.00;196.50;224877.00;;;;7401500;19;20129;-76
2022/03/15 07:46:48;;;;;;;4.37;2.00;;;6.70;1.00;196.50;224877.00;;;;7399107;19;20162;-77
2022/03/15 07:49:22;;;;;;;5.27;1.80;;;6.60;1.00;196.50;224877.00;;;;7398646;19;20144;-77
2022/03/15 07:51:50;;;;;;;6.47;1.93;;;6.70;1.00;196.50;224877.00;;;;7401959;19;20494;-77
2022/03/15 07:54:18;;;;;;;3.50;1.40;;;6.70;1.00;196.50;224877.00;;;;7399748;19;20141;-76
2022/03/15 07:56:52;;;;;;;3.03;1.73;;;6.70;1.00;196.50;224877.00;;;;7397619;19;20516;-76
2022/03/15 07:59:22;;;;;;;5.47;1.80;;;6.90;1.00;196.50;224877.00;;;;7402511;19;20169;-79
2022/03/15 08:01:51;;;;;;;4.87;1.63;;;6.90;1.00;196.50;224877.00;;;;7400864;19;20125;-79
2022/03/15 08:04:25;;;;;;;3.17;2.10;;;7.00;1.00;196.50;224877.00;;;;7400060;19;20145;-79
2022/03/15 08:06:52;;;;;;;2.43;1.53;;;6.90;1.00;196.50;224877.00;;;;7400528;19;20125;-78
2022/03/15 08:09:19;;;;;;;4.90;1.77;;;7.00;1.00;196.50;224877.00;;;;7399434;19;20137;-79
2022/03/15 08:12:00;;;;;;;2.40;1.80;;;7.00;1.00;196.50;224877.00;;;;7399871;19;20136;-79
2022/03/15 08:14:40;;;;;;;3.70;1.73;;;7.10;1.00;196.50;224877.00;;;;7399697;19;20162;-79
2022/03/15 08:17:15;;;;;;;5.13;1.70;;;7.10;1.00;196.50;224877.00;;;;7399590;19;20153;-79
2022/03/15 08:19:43;;;;;;;5.30;2.00;;;7.10;1.00;196.50;224877.00;;;;7398858;19;20140;-76
2022/03/15 08:22:13;;;;;;;5.67;2.03;;;7.20;1.00;196.50;224877.00;;;;7397974;19;20144;-77
2022/03/15 08:24:47;;;;;;;5.00;2.53;;;7.20;1.50;196.50;224877.00;;;;7399087;19;20229;-77
2022/03/15 08:27:14;;;;;;;4.90;2.60;;;7.20;12.20;196.50;224877.00;;;;7395841;19;20145;-77
2022/03/15 08:29:43;;;;;;;3.63;2.10;;;7.10;1.00;196.50;224877.00;;;;7392189;19;20157;-76
2022/03/15 08:32:18;;;;;;;5.30;2.20;;;7.00;6.40;196.50;224877.00;;;;7399319;19;20148;-77
2022/03/15 08:34:45;;;;;;;5.43;2.10;;;6.90;46.90;196.50;224877.00;;;;7398581;19;20144;-79
2022/03/15 08:37:13;;;;;;;2.97;1.90;;;6.80;24.70;196.50;224877.00;;;;7398870;19;20129;-79
2022/03/15 08:39:47;;;;;;;2.80;1.77;;;6.60;99.90;196.50;224877.00;;;;7397694;19;20128;-79
2022/03/15 08:42:14;;;;;;;3.07;1.83;;;6.50;99.90;196.50;224877.00;;;;7398647;19;20632;-79
2022/03/15 08:44:42;;;;;;;2.67;1.80;;;6.40;99.90;196.50;224877.00;;;;7398915;19;20121;-79
2022/03/15 08:47:16;;;;;;;3.73;1.80;;;6.30;99.90;196.50;224877.00;;;;7396765;19;20149;-79
2022/03/15 08:50:09;;;;;;;17.30;2.50;;;6.20;1.00;196.50;224877.00;;;;7391583;19;20145;-78
2022/03/15 08:52:44;;;;;;;4.43;2.20;;;6.20;99.90;196.50;224877.00;;;;7395696;19;20460;-78
2022/03/15 08:55:12;;;;;;;2.70;1.77;;;6.10;99.90;196.50;224877.00;;;;7395442;19;20137;-77
2022/03/15 08:57:39;;;;;;;4.53;1.80;;;6.10;1.00;196.50;224877.00;;;;7394199;19;20131;-78
2022/03/15 09:00:13;;;;;;;3.77;1.90;;;6.10;1.00;196.50;224877.00;;;;7394220;19;20169;-78
2022/03/15 09:02:41;;;;;;;3.57;1.83;;;6.10;1.00;196.50;224877.00;;;;7394546;19;20154;-78
2022/03/15 09:05:11;;;;;;;2.07;1.73;;;6.10;99.90;196.50;224877.00;;;;7397585;19;20140;-79
2022/03/15 09:07:52;;;;;;;4.67;2.03;;;6.10;99.90;196.50;224877.00;;;;7395725;19;20132;-79
2022/03/15 09:10:23;;;;;;;2.97;1.60;;;6.00;1.00;196.50;224877.00;;;;7395327;19;20144;-77
2022/03/15 09:13:10;;;;;;;1.60;1.33;;;6.10;1.00;196.50;224877.00;;;;7394776;19;20204;-78
2022/03/15 09:15:44;;;;;;;2.30;1.67;;;6.10;1.00;196.50;224877.00;;;;7396926;19;20143;-78
2022/03/15 09:18:18;;;;;;;3.80;1.87;;;6.20;1.00;196.50;224877.00;;;;7398009;19;20125;-78
2022/03/15 09:20:45;;;;;;;2.00;1.63;;;6.20;1.00;196.50;224877.00;;;;7396602;19;20667;-78
2022/03/15 09:23:13;;;;;;;3.43;2.00;;;6.20;1.00;196.50;224877.00;;;;7396134;19;20137;-78
2022/03/15 09:25:49;;;;;;;3.73;1.70;;;6.10;1.00;196.50;224877.00;;;;7395725;19;20157;-77
2022/03/15 09:28:24;;;;;;;3.03;2.07;;;6.10;9.80;196.50;224877.00;;;;7394675;19;20152;-78
2022/03/15 09:30:58;;;;;;;2.87;1.87;;;6.00;32.00;196.50;224877.00;;;;7396507;19;20141;-78
2022/03/15 09:33:25;;;;;;;4.40;1.70;;;6.00;99.90;196.50;224877.00;;;;7397877;19;20127;-77
2022/03/15 09:35:53;;;;;;;2.77;1.90;;;6.00;99.90;196.50;224877.00;;;;7396043;19;20140;-78
2022/03/15 09:38:28;;;;;;;2.93;2.03;;;6.10;99.90;196.50;224877.00;;;;7393438;19;20136;-80
2022/03/15 09:40:56;;;;;;;2.00;1.60;;;6.00;99.90;196.50;224877.00;;;;7394629;19;20224;-80
2022/03/15 09:43:24;;;;;;;3.43;1.93;;;6.00;99.90;196.50;224877.00;;;;7394765;19;20573;-80
2022/03/15 09:46:04;;;;;;;3.80;1.67;;;6.00;99.90;196.50;224877.00;;;;7398927;19;20542;-81
2022/03/15 09:48:54;;;;;;;2.40;1.60;;;6.00;99.90;196.50;224877.00;;;;7395700;19;20162;-81
2022/03/15 09:51:32;;;;;;;2.97;2.13;;;6.00;99.90;196.50;224877.00;;;;7393686;19;20643;-80
2022/03/15 09:54:01;;;;;;;2.53;2.00;;;5.90;99.90;196.50;224877.00;;;;7393959;19;20203;-81
2022/03/15 09:56:29;;;;;;;3.30;1.97;;;6.00;99.90;196.50;224877.00;;;;7397899;19;20133;-81
2022/03/15 09:59:03;;;;;;;2.47;1.97;;;6.00;99.90;196.50;224877.00;;;;7405900;19;20975;-81
2022/03/15 10:01:30;;;;;;;2.23;1.50;;;6.00;99.90;196.50;224877.00;;;;7408337;19;20141;-81
2022/03/15 10:03:58;;;;;;;2.50;1.97;;;5.90;99.90;196.50;224877.00;;;;7404214;19;20141;-82
2022/03/15 10:06:32;;;;;;;2.53;2.00;;;6.00;99.90;196.50;224877.00;;;;7406772;19;20137;-82
2022/03/15 10:09:08;;;;;;;3.47;2.00;;;6.00;99.90;196.50;224877.00;;;;7411772;19;20132;-81
2022/03/15 10:11:46;;;;;;;2.00;1.80;;;6.00;99.90;196.50;224877.00;;;;7413139;19;20142;-82
2022/03/15 10:14:28;;;;;;;6.83;2.90;;;5.90;99.90;196.50;224877.00;;;;7405780;19;20212;-81
2022/03/15 10:17:04;;;;;;;4.73;2.00;;;6.00;99.90;196.50;224877.00;;;;7403295;19;20139;-80
2022/03/15 10:19:53;;;;;;;5.13;2.10;;;6.00;99.90;196.50;224877.00;;;;7395884;19;20144;-80
2022/03/15 10:22:25;;;;;;;3.43;2.40;;;6.00;99.90;196.50;224877.00;;;;7398409;19;20149;-80
2022/03/15 10:25:01;;;;;;;3.50;2.37;;;5.90;1.00;196.50;224877.00;;;;7398518;19;20148;-81
2022/03/15 10:27:35;;;;;;;3.17;2.57;;;6.00;1.00;196.50;224877.00;;;;7395860;19;20200;-80
2022/03/15 10:30:09;;;;;;;6.57;3.10;;;6.00;1.40;196.50;224877.00;;;;7418044;19;20121;-82
2022/03/15 10:32:37;;;;;;;5.13;3.40;;;6.00;99.90;196.50;224877.00;;;;7416685;19;20137;-83
2022/03/15 10:35:09;;;;;;;4.83;2.70;;;6.00;1.00;196.50;224877.00;;;;7420681;19;20133;-81
2022/03/15 10:37:45;;;;;;;6.63;2.90;;;6.00;99.90;196.50;224877.00;;;;7420514;19;20137;-83
2022/03/15 10:40:23;;;;;;;4.43;2.70;;;6.10;99.90;196.50;224877.00;;;;7420426;19;20148;-83
2022/03/15 10:43:08;;;;;;;4.20;3.40;;;6.10;99.90;196.50;224877.00;;;;7407114;19;20141;-81
2022/03/15 10:45:56;;;;;;;3.97;2.70;;;6.20;1.00;196.50;224877.00;;;;7401395;19;20133;-79
2022/03/15 10:48:32;;;;;;;3.10;2.80;;;6.20;1.00;196.50;224877.00;;;;7393564;19;20152;-80
2022/03/15 10:51:06;;;;;;;5.23;2.47;;;6.10;1.00;196.50;224877.00;;;;7394755;19;20137;-80
2022/03/15 10:53:46;;;;;;;4.50;3.10;;;6.10;1.00;196.50;224877.00;;;;7394343;19;20648;-79
2022/03/15 10:56:24;;;;;;;3.93;2.50;;;6.10;1.00;196.50;224877.00;;;;7410989;19;20141;-82
2022/03/15 10:59:04;;;;;;;2.57;2.30;;;6.20;1.00;196.50;224877.00;;;;7402299;19;20134;-79
2022/03/15 11:01:41;;;;;;;4.13;2.60;;;6.20;1.00;196.50;224877.00;;;;7395474;19;20166;-79
2022/03/15 11:04:17;;;;;;;4.17;2.77;;;6.30;1.00;196.50;224877.00;;;;7404609;19;20228;-82
2022/03/15 11:06:50;;;;;;;3.37;2.57;;;6.30;99.90;196.50;224877.00;;;;7395390;19;20570;-81
2022/03/15 11:09:29;;;;;;;2.97;2.60;;;6.30;1.00;196.50;224877.00;;;;7393560;19;20868;-80
2022/03/15 11:12:05;;;;;;;5.53;2.93;;;6.30;1.00;196.50;224877.00;;;;7391060;19;20160;-81
2022/03/15 11:14:54;;;;;;;4.03;2.80;;;6.40;1.00;196.50;224877.00;;;;7390645;19;20180;-80